Date,TemperatureHighF,TemperatureAvgF,TemperatureLowF,DewpointHighF,DewpointAvgF,DewpointLowF,HumidityHigh,HumidityAvg,HumidityLow,PressureMaxIn,PressureMinIn,WindSpeedMaxMPH,WindSpeedAvgMPH,GustSpeedMaxMPH,PrecipitationSumIn
2013-3-1,40.0,37.1,33.0,37.0,30.4,27.0,99,77,60,0.00,40.00,6,-26,14,0.00
2013-3-2,43.0,36.0,30.0,31.0,27.2,25.0,95,71,52,0.00,40.00,7,-4,15,0.26
2013-3-3,42.0,33.7,29.0,30.0,27.2,25.0,96,78,56,0.00,40.00,6,-27,15,0.66
2013-3-4,37.0,31.8,28.0,26.0,22.8,21.0,75,68,58,0.00,40.00,7,-38,21,0.04
2013-3-5,46.0,35.3,26.0,33.0,26.5,21.0,92,71,45,0.00,40.00,6,-27,12,0.00
2013-3-6,40.0,37.0,33.0,35.0,30.2,25.0,96,77,59,0.00,40.00,9,3,18,0.00
2013-3-7,36.0,33.3,32.0,33.0,29.1,25.0,99,85,64,0.00,40.00,9,-4,19,2.95
2013-3-8,45.0,36.6,31.0,34.0,28.4,22.0,99,74,45,0.00,40.00,6,-12,17,0.62
2013-3-9,59.0,40.9,27.0,29.0,21.1,12.0,84,52,15,0.00,40.00,4,-26,9,0.00
2013-3-10,49.0,37.0,25.0,32.0,27.4,24.0,95,71,40,0.00,40.00,8,-12,14,0.00
2013-3-11,53.0,42.3,33.0,38.0,32.3,27.0,95,70,37,0.00,40.00,6,-26,11,0.00
2013-3-12,51.0,46.8,42.0,51.0,46.2,38.0,99,97,84,0.00,40.00,7,-18,15,0.45
2013-3-13,50.0,42.2,33.0,49.0,32.0,22.0,99,69,38,0.00,40.00,7,-19,17,0.00
2013-3-14,36.0,31.1,21.0,28.0,17.2,5.0,87,57,38,0.00,40.00,9,-4,21,0.00
2013-3-15,41.0,28.3,18.0,32.0,13.2,3.0,98,56,25,0.00,40.00,9,-40,25,1.56
2013-3-16,35.0,29.8,24.0,29.0,15.0,8.0,93,56,33,0.00,40.00,6,-26,11,0.00
2013-3-17,34.0,26.6,19.0,15.0,7.5,0.0,77,46,25,0.00,40.00,11,-11,25,0.00
2013-3-18,38.0,26.9,13.0,24.0,2.8,-4.0,77,38,18,0.00,40.00,6,-49,9,0.47
2013-3-19,34.0,30.6,26.0,33.0,29.2,25.0,99,94,81,0.00,40.00,7,-26,14,5.36
2013-3-20,39.0,31.0,26.0,27.0,21.5,17.0,97,70,44,0.00,40.00,9,-4,20,0.07
2013-3-21,44.0,30.9,18.0,20.0,15.0,9.0,85,55,24,0.00,40.00,6,-34,12,0.00
2013-3-22,41.0,33.0,25.0,29.0,18.5,12.0,89,56,32,0.00,40.00,6,-26,14,0.08
2013-3-23,43.0,34.5,25.0,23.0,19.9,16.0,80,56,34,0.00,40.00,9,4,28,0.00
2013-3-24,46.0,38.4,31.0,26.0,23.4,22.0,73,55,38,0.00,40.00,9,3,20,0.00
2013-3-25,44.0,36.7,26.0,30.0,26.0,22.0,88,66,46,0.00,40.00,6,-6,12,0.00
2013-3-26,50.0,40.9,34.0,31.0,24.0,16.0,82,55,26,0.00,40.00,7,-12,17,0.00
2013-3-27,52.0,40.8,30.0,35.0,26.2,23.0,83,58,35,0.00,40.00,9,-40,24,0.00
2013-3-28,50.0,42.2,36.0,36.0,33.3,28.0,97,72,44,0.00,40.00,7,-20,12,0.01
2013-3-29,55.0,45.7,38.0,37.0,33.2,30.0,78,62,40,0.00,40.00,6,-20,14,0.00
2013-3-30,57.0,44.0,33.0,32.0,23.7,13.0,88,50,19,0.00,40.00,6,-5,15,0.00
2013-3-31,60.0,43.2,27.0,42.0,22.5,-99.9,94,51,20,0.00,40.00,10,3,21,0.26